Confienza, Italy

8:14 AM CET on November 15, 2019 (GMT +0100)
Novara | | Change Station

Elev 433 ft 45.36 °N, 8.53 °E | Updated 3 minutes ago

Mostly Cloudy
Mostly Cloudy
38.1 °F
Feels Like 38 °F
N
0
Wind Variable Wind from SE
Gusts 0.0 mph

Today
High -- | Low -- °F
--% Chance of Precip.
Yesterday
High -- | Low -- °F
Precip. -- in
Pressure 29.53 in
Visibility 2.5 miles
Clouds Scattered Clouds 300 ft
Mostly Cloudy 1000 ft
Windchill 38 °F
Dew Point 36 °F
Humidity 95%
Rainfall 0.48 in
Snow Depth Not available.
7:23 AM 4:56 PM
Waning Gibbous, 92% visible
METAR LIMN 150655Z 15003KT 4000 BR SCT003 BKN010 04/04 Q1000 RMK OVC VIS MIN 4000 GRN
Pressure 29.53 in
Visibility 2.5 miles
Clouds Scattered Clouds 300 ft
Mostly Cloudy 1000 ft
Windchill 38 °F
Dew Point 36 °F
Humidity 95%
Rainfall 0.48 in
Snow Depth Not available.
7:23 AM 4:56 PM
Waning Gibbous, 92% visible
METAR LIMN 150655Z 15003KT 4000 BR SCT003 BKN010 04/04 Q1000 RMK OVC VIS MIN 4000 GRN

Get Severe Weather Alerts

Thanks for signing up!

Be on the lookout for a verification email in your inbox.

You'll start receiving the daily forecast at 6 AM.

×

10-Day Weather Forecast

×

Almanac

Astronomy

Nov. 15, 2019 Rise Set
Actual Time
Civil Twilight
Nautical Twilight
Astronomical Twilight
Moon
Length of Visible Light
Length of Day
Tomorrow will be .
, % of the Moon is Illuminated

Today's Extremes

Country Highs Country Lows

Community

WunderPhotos

Category 6

Welcome to Category 6. This is the collective home for Weather Underground's featured writeups by Dr. Jeff Masters (right), Bob Henson (left), Chris Burt, and other regular contributors.

Nearby

Air Quality

  Air Quality AQ Index Pollutant
Not available.

Snow Depth

Station Depth Elevation

Earthquake Activity

City Distance Mag. Time & Date
Minimum magnitude displayed is 2.5.

Coastal Water Temperatures

Place Temperature

Stations

Nearby Weather Stations

Station Location Temp. Windchill Dew Point Humidity Wind Precip. Elev Updated Type